首页
METAR-TAF:

METAR-TAF

机场 :

New Bern, 北卡罗来纳州, 美国

纬度: 35-04-03N, 经度: 077-02-50W, 海拔: 5米

当前天气观测

该预报发布于12分钟前的09:54 UTC
风速8节,风向
温度 7°C
湿度 93%
气压 1023 hPa
能見度: 16.1公里
多云层高于600英尺
阴天层高于6500英尺
小雨

METAR: KEWN 150954Z AUTO 36008KT 10SM -RA BKN006 OVC065 07/06 A3022 RMK AO2 SLP232 P0005 T00670056

时间: 05:06 (10:06 UTC)

预报

该预报发布于4小时和38分钟前的05:28 UTC
预报有效从15日的 06点(UTC)到 16日的 06点(UTC)
风速5节,风向
能見度: 10公里
多云层高于9000英尺
阴天层高于12000英尺
从 15日的 0900点(UTC)
风速7节,风向
能見度: 9.7公里
阴天层高于700英尺
小雨
从 15日的 1900点(UTC)
风速10节,风向北转东北
能見度: 6.4公里
阴天层高于300英尺
从 16日的 0100点(UTC)
风速12节,风向北转东北
能見度: 8.0公里
阴天层高于1000英尺
小阵雨

TAF: KEWN 150528Z 1506/1606 01005KT P6SM BKN090 OVC120 FM150900 36007KT 6SM -RA OVC007 FM151900 03010KT 4SM RA OVC003 FM160100 02012KT 5SM -SHRA OVC010

超过4000个机场的气象观测和天气预报(METAR&TAF报告)。

可查询的气象台以黄色和红色小点在地图上表示。

将鼠标移到小点上方,可查看气象台名称。

然后点击查看天气观测和预报。

如需切换地图:点击带黑十字的绿色按钮放大地图;点击带横线的绿色按钮缩小地图;或者点击绿色箭头查看邻近地区的地图。


METAR-TAF: